Time;durP1;ratioP1;P1;durP2;ratioP2;P2;SDS_P1;SDS_P2;PMS_P1;PMS_P2;Temp;Humidity;BMP_temperature;BMP_pressure;BME280_temperature;BME280_humidity;BME280_pressure;Samples;Min_cycle;Max_cycle;Signal;HPM_P1;HPM_P2
2023/04/16 09:18:33;;;;;;;;;27.00;25.50;;;;;;;;5115407;22;50735;-72
2023/04/16 09:20:59;;;;;;;;;26.25;24.50;;;;;;;;5026410;28;49637;-72
2023/04/16 09:23:24;;;;;;;;;31.00;27.25;;;;;;;;5023054;28;50064;-74
2023/04/16 09:25:49;;;;;;;;;22.75;19.75;;;;;;;;5020137;28;51182;-74
2023/04/16 09:28:33;;;;;;;;;27.25;21.50;;;;;;;;5017293;28;49959;-72
2023/04/16 09:31:12;;;;;;;;;21.50;21.00;;;;;;;;5022813;28;49850;-73
2023/04/16 09:33:38;;;;;;;;;20.50;18.00;;;;;;;;5023950;28;51021;-73
2023/04/16 09:36:03;;;;;;;;;20.50;20.50;;;;;;;;5021858;28;51962;-74
2023/04/16 09:38:47;;;;;;;;;18.25;16.50;;;;;;;;5019378;28;49733;-73
2023/04/16 09:41:15;;;;;;;;;14.50;13.25;;;;;;;;5020540;28;49787;-74
2023/04/16 09:43:40;;;;;;;;;21.50;17.00;;;;;;;;5021995;28;49780;-72
2023/04/16 09:46:10;;;;;;;;;7.50;6.00;;;;;;;;5029002;28;50289;-73
2023/04/16 09:48:35;;;;;;;;;22.25;19.25;;;;;;;;5011063;28;49670;-73
2023/04/16 09:51:00;;;;;;;;;24.00;20.25;;;;;;;;5027513;28;50021;-73
2023/04/16 09:53:29;;;;;;;;;26.50;25.50;;;;;;;;5027994;28;49979;-74
2023/04/16 09:56:05;;;;;;;;;26.00;25.25;;;;;;;;5028784;28;49799;-70
2023/04/16 09:58:30;;;;;;;;;22.75;18.75;;;;;;;;5031289;28;49784;-72
2023/04/16 10:01:00;;;;;;;;;31.00;30.25;;;;;;;;5029514;28;49827;-80
2023/04/16 10:03:32;;;;;;;;;21.50;20.25;;;;;;;;5025795;28;50089;-75
2023/04/16 10:06:05;;;;;;;;;18.25;17.25;;;;;;;;5031942;28;50718;-78
2023/04/16 10:08:30;;;;;;;;;19.75;18.75;;;;;;;;5028184;28;49821;-79
2023/04/16 10:10:56;;;;;;;;;15.75;12.00;;;;;;;;5024052;28;51188;-81
2023/04/16 10:13:21;;;;;;;;;34.50;31.75;;;;;;;;5012561;28;49850;-80
2023/04/16 10:15:47;;;;;;;;;35.00;25.75;;;;;;;;5030399;28;50142;-74
2023/04/16 10:18:13;;;;;;;;;16.75;15.75;;;;;;;;5013852;28;49758;-73
2023/04/16 10:20:39;;;;;;;;;22.75;21.75;;;;;;;;5030072;28;49877;-73
2023/04/16 10:23:04;;;;;;;;;16.25;15.75;;;;;;;;5012422;28;50037;-73
2023/04/16 10:25:30;;;;;;;;;17.75;15.25;;;;;;;;5022318;28;50505;-72
2023/04/16 10:27:56;;;;;;;;;34.00;28.00;;;;;;;;5028234;28;50153;-73
2023/04/16 10:30:21;;;;;;;;;19.75;18.75;;;;;;;;5033279;28;49969;-73
2023/04/16 10:32:46;;;;;;;;;21.25;19.75;;;;;;;;5030664;28;49670;-73
2023/04/16 10:35:18;;;;;;;;;21.75;18.00;;;;;;;;5029497;28;50006;-80
2023/04/16 10:37:44;;;;;;;;;9.00;9.00;;;;;;;;5011206;28;49782;-79
2023/04/16 10:40:25;;;;;;;;;13.00;12.00;;;;;;;;5028943;28;49935;-80
2023/04/16 10:42:57;;;;;;;;;12.00;10.50;;;;;;;;5027211;28;50074;-80
2023/04/16 10:45:26;;;;;;;;;22.75;16.00;;;;;;;;5037340;28;49722;-74
2023/04/16 10:47:54;;;;;;;;;14.50;14.50;;;;;;;;5025933;28;49842;-76
2023/04/16 10:50:19;;;;;;;;;17.75;16.00;;;;;;;;5036422;28;49930;-80
2023/04/16 10:52:44;;;;;;;;;15.75;13.00;;;;;;;;5036020;28;49703;-83
2023/04/16 10:55:15;;;;;;;;;11.50;11.50;;;;;;;;5030931;28;50875;-78
2023/04/16 10:57:40;;;;;;;;;15.25;14.00;;;;;;;;5027144;28;49906;-78
2023/04/16 11:00:20;;;;;;;;;17.00;15.00;;;;;;;;5030824;28;49903;-79
2023/04/16 11:02:45;;;;;;;;;12.75;11.00;;;;;;;;5012215;28;50096;-75
2023/04/16 11:05:11;;;;;;;;;14.25;11.75;;;;;;;;5031210;28;49854;-78
2023/04/16 11:07:38;;;;;;;;;12.75;11.75;;;;;;;;5011315;28;49636;-80
2023/04/16 11:10:04;;;;;;;;;12.75;11.25;;;;;;;;5030217;28;49837;-78
2023/04/16 11:12:39;;;;;;;;;15.50;11.25;;;;;;;;5030114;28;49736;-77
2023/04/16 11:15:06;;;;;;;;;12.25;11.25;;;;;;;;5035358;28;50668;-79
2023/04/16 11:17:35;;;;;;;;;12.50;10.75;;;;;;;;5042982;28;49740;-78
2023/04/16 11:20:01;;;;;;;;;12.25;11.75;;;;;;;;5030174;28;49846;-77
2023/04/16 11:22:27;;;;;;;;;9.25;7.25;;;;;;;;5028522;28;50698;-85
2023/04/16 11:24:53;;;;;;;;;11.00;11.00;;;;;;;;5011788;28;50099;-79
2023/04/16 11:27:18;;;;;;;;;8.50;8.50;;;;;;;;5027763;28;49889;-88
2023/04/16 11:29:44;;;;;;;;;9.00;9.00;;;;;;;;5024497;28;49930;-79
2023/04/16 11:32:09;;;;;;;;;9.25;9.25;;;;;;;;5036125;28;49955;-81
2023/04/16 11:34:42;;;;;;;;;14.00;12.00;;;;;;;;5029558;28;50557;-77
2023/04/16 11:37:07;;;;;;;;;11.00;7.50;;;;;;;;5029113;28;49809;-82
2023/04/16 11:39:32;;;;;;;;;22.50;21.00;;;;;;;;5030475;28;50226;-82
2023/04/16 11:41:57;;;;;;;;;8.00;6.75;;;;;;;;5011812;28;49847;-79
2023/04/16 11:44:24;;;;;;;;;6.00;5.00;;;;;;;;5030034;28;50747;-84
2023/04/16 11:46:49;;;;;;;;;8.25;6.00;;;;;;;;5031109;28;50106;-80
2023/04/16 11:49:16;;;;;;;;;13.00;11.75;;;;;;;;5031441;28;50986;-79
2023/04/16 11:51:42;;;;;;;;;8.25;8.25;;;;;;;;5030889;28;50084;-81
2023/04/16 11:54:08;;;;;;;;;10.25;8.50;;;;;;;;5038181;28;52659;-84
2023/04/16 11:56:35;;;;;;;;;6.50;6.50;;;;;;;;5031396;28;49803;-91
2023/04/16 11:59:07;;;;;;;;;14.25;12.75;;;;;;;;5030151;28;49988;-84
2023/04/16 12:01:32;;;;;;;;;10.25;8.50;;;;;;;;5031955;28;49750;-82
2023/04/16 12:04:00;;;;;;;;;5.00;5.00;;;;;;;;5013330;28;52594;-90
2023/04/16 12:06:26;;;;;;;;;12.25;12.25;;;;;;;;5045294;28;49753;-86
2023/04/16 12:08:51;;;;;;;;;11.00;10.25;;;;;;;;5031391;28;49698;-81
2023/04/16 12:11:16;;;;;;;;;9.00;7.75;;;;;;;;5042043;28;50068;-78
2023/04/16 12:13:41;;;;;;;;;6.50;6.50;;;;;;;;5042640;28;50962;-87
2023/04/16 12:16:16;;;;;;;;;6.75;5.00;;;;;;;;5018665;28;49654;-89
2023/04/16 12:18:57;;;;;;;;;0.00;0.00;;;;;;;;5028821;28;49769;-75
2023/04/16 12:21:22;;;;;;;;;4.00;4.00;;;;;;;;5029026;28;49780;-79
2023/04/16 12:23:52;;;;;;;;;5.00;5.00;;;;;;;;5029755;28;49889;-76
2023/04/16 12:26:17;;;;;;;;;4.00;4.00;;;;;;;;5027848;28;50303;-77
2023/04/16 12:28:42;;;;;;;;;4.25;4.25;;;;;;;;5030529;28;50167;-78
2023/04/16 12:31:09;;;;;;;;;6.00;5.25;;;;;;;;5028080;28;50146;-78
2023/04/16 12:33:34;;;;;;;;;6.00;4.50;;;;;;;;5028749;28;51037;-81
2023/04/16 12:36:00;;;;;;;;;6.00;5.00;;;;;;;;5029742;28;49754;-80
2023/04/16 12:38:25;;;;;;;;;8.75;4.50;;;;;;;;5029946;28;49883;-79
2023/04/16 12:40:51;;;;;;;;;5.75;4.25;;;;;;;;5034233;28;50531;-82
2023/04/16 12:43:16;;;;;;;;;1.75;1.75;;;;;;;;5029640;28;50804;-81
2023/04/16 12:45:41;;;;;;;;;5.50;5.50;;;;;;;;5028748;28;49743;-80
2023/04/16 12:48:06;;;;;;;;;5.50;5.50;;;;;;;;5028776;28;50056;-80
2023/04/16 12:50:32;;;;;;;;;3.00;3.00;;;;;;;;5029497;28;49708;-82
2023/04/16 12:52:57;;;;;;;;;5.50;5.00;;;;;;;;5028346;28;51023;-84
2023/04/16 12:55:23;;;;;;;;;6.00;4.50;;;;;;;;5032825;28;49983;-82
2023/04/16 12:57:48;;;;;;;;;5.00;2.50;;;;;;;;5031710;28;50236;-82
2023/04/16 13:00:15;;;;;;;;;5.75;5.75;;;;;;;;5032339;28;50139;-83
2023/04/16 13:02:40;;;;;;;;;3.25;3.00;;;;;;;;5035395;28;50327;-82
2023/04/16 13:05:06;;;;;;;;;3.50;2.50;;;;;;;;5037310;28;49822;-82
2023/04/16 13:07:32;;;;;;;;;5.75;4.00;;;;;;;;5030092;28;50052;-82
2023/04/16 13:09:58;;;;;;;;;11.00;5.00;;;;;;;;5027023;28;49973;-82
2023/04/16 13:12:23;;;;;;;;;4.25;3.75;;;;;;;;5026464;28;50624;-83
2023/04/16 13:14:48;;;;;;;;;4.50;4.50;;;;;;;;5028212;28;50123;-80
2023/04/16 13:17:14;;;;;;;;;1.75;1.75;;;;;;;;5035765;28;49953;-80
2023/04/16 13:19:39;;;;;;;;;5.50;5.50;;;;;;;;5026386;28;50113;-81
2023/04/16 13:22:04;;;;;;;;;6.00;5.75;;;;;;;;5024296;28;50809;-81
2023/04/16 13:24:30;;;;;;;;;8.50;8.50;;;;;;;;5023971;28;49798;-81
2023/04/16 13:26:55;;;;;;;;;6.50;6.50;;;;;;;;5030921;28;49838;-82
2023/04/16 13:29:20;;;;;;;;;7.50;6.00;;;;;;;;5037684;28;49884;-81
2023/04/16 13:31:45;;;;;;;;;4.75;4.75;;;;;;;;5045071;28;50922;-79
2023/04/16 13:34:11;;;;;;;;;7.75;7.75;;;;;;;;5027592;28;50082;-79
2023/04/16 13:36:36;;;;;;;;;7.75;5.25;;;;;;;;5031315;28;50292;-84
2023/04/16 13:39:04;;;;;;;;;4.25;3.00;;;;;;;;5028497;28;49986;-81
2023/04/16 13:41:29;;;;;;;;;4.50;4.50;;;;;;;;5010239;28;52030;-84
2023/04/16 13:43:54;;;;;;;;;8.00;6.75;;;;;;;;5022190;28;49801;-76
2023/04/16 13:46:20;;;;;;;;;4.75;4.75;;;;;;;;5027428;28;49901;-75
2023/04/16 13:48:45;;;;;;;;;6.00;5.25;;;;;;;;5010211;28;49996;-77
2023/04/16 13:51:11;;;;;;;;;9.50;6.00;;;;;;;;5028077;28;50526;-78
2023/04/16 13:53:36;;;;;;;;;7.00;5.50;;;;;;;;5010534;28;49682;-79
2023/04/16 13:56:05;;;;;;;;;5.00;5.00;;;;;;;;5028727;28;50229;-83
2023/04/16 13:58:31;;;;;;;;;6.00;6.00;;;;;;;;5027230;28;50061;-84
2023/04/16 14:00:56;;;;;;;;;7.50;5.25;;;;;;;;5026852;28;52480;-72
2023/04/16 14:03:21;;;;;;;;;2.00;2.00;;;;;;;;5027776;28;50063;-68
2023/04/16 14:05:46;;;;;;;;;5.50;5.50;;;;;;;;5025814;28;50183;-68
2023/04/16 14:08:13;;;;;;;;;5.25;5.25;;;;;;;;5028092;28;49755;-67
2023/04/16 14:10:39;;;;;;;;;7.25;6.00;;;;;;;;5008694;28;51841;-68
2023/04/16 14:13:04;;;;;;;;;4.25;4.25;;;;;;;;5027220;28;49776;-67
2023/04/16 14:15:30;;;;;;;;;7.75;6.75;;;;;;;;5024929;28;50375;-68
2023/04/16 14:17:55;;;;;;;;;4.75;4.75;;;;;;;;5018643;28;50007;-69
2023/04/16 14:20:20;;;;;;;;;5.00;3.00;;;;;;;;5026246;28;50898;-70
2023/04/16 14:22:46;;;;;;;;;6.25;6.25;;;;;;;;5021925;28;49764;-68
2023/04/16 14:25:11;;;;;;;;;7.00;6.00;;;;;;;;5020055;28;49851;-69
2023/04/16 14:27:36;;;;;;;;;4.00;4.00;;;;;;;;5018950;28;49984;-70
2023/04/16 14:30:01;;;;;;;;;2.00;2.00;;;;;;;;5019579;28;50487;-70
2023/04/16 14:32:27;;;;;;;;;6.00;5.00;;;;;;;;5019876;28;50001;-69
2023/04/16 14:34:52;;;;;;;;;6.50;6.50;;;;;;;;5019038;28;49738;-70
2023/04/16 14:37:17;;;;;;;;;8.25;7.25;;;;;;;;5016744;28;50214;-70
2023/04/16 14:39:43;;;;;;;;;7.00;7.00;;;;;;;;5021459;28;51089;-69
2023/04/16 14:42:08;;;;;;;;;3.75;3.75;;;;;;;;5031373;28;49689;-69
2023/04/16 14:44:33;;;;;;;;;7.50;7.00;;;;;;;;5027828;28;50088;-69
2023/04/16 14:46:58;;;;;;;;;7.00;6.00;;;;;;;;5030486;28;50696;-69
2023/04/16 14:49:24;;;;;;;;;6.25;4.75;;;;;;;;5011172;28;52911;-70
2023/04/16 14:51:51;;;;;;;;;6.50;6.50;;;;;;;;5028847;28;49822;-68
2023/04/16 14:54:16;;;;;;;;;5.50;5.50;;;;;;;;5002286;28;49794;-69
2023/04/16 14:56:41;;;;;;;;;13.50;4.00;;;;;;;;5029577;28;49788;-69
2023/04/16 14:59:07;;;;;;;;;7.00;6.00;;;;;;;;5032598;28;50870;-69
2023/04/16 15:01:33;;;;;;;;;6.00;6.00;;;;;;;;5029722;28;49713;-69
2023/04/16 15:03:58;;;;;;;;;5.25;5.25;;;;;;;;5036099;28;49870;-69
2023/04/16 15:06:23;;;;;;;;;7.00;4.75;;;;;;;;5011136;28;50237;-68
2023/04/16 15:08:49;;;;;;;;;5.25;4.50;;;;;;;;5011458;28;50001;-68
2023/04/16 15:11:14;;;;;;;;;7.50;7.00;;;;;;;;5029155;28;50260;-69
2023/04/16 15:13:39;;;;;;;;;5.50;5.50;;;;;;;;5029343;28;49943;-69
2023/04/16 15:16:04;;;;;;;;;6.75;5.75;;;;;;;;5029739;28;49703;-68
2023/04/16 15:18:32;;;;;;;;;7.00;5.75;;;;;;;;4989899;28;1123171;-68
2023/04/16 15:20:57;;;;;;;;;5.50;5.50;;;;;;;;5030363;28;49681;-67
2023/04/16 15:23:23;;;;;;;;;7.50;7.50;;;;;;;;5012407;28;49944;-66
2023/04/16 15:25:48;;;;;;;;;5.75;4.25;;;;;;;;5030724;28;50051;-67
2023/04/16 15:28:13;;;;;;;;;6.00;6.00;;;;;;;;5029295;28;50829;-67
2023/04/16 15:30:39;;;;;;;;;8.25;7.00;;;;;;;;5030093;28;49727;-67
2023/04/16 15:33:04;;;;;;;;;9.25;9.25;;;;;;;;5029377;28;49839;-73
2023/04/16 15:35:30;;;;;;;;;5.50;5.00;;;;;;;;5006366;28;50310;-72
2023/04/16 15:37:55;;;;;;;;;6.00;6.00;;;;;;;;5029780;28;50682;-73
2023/04/16 15:40:21;;;;;;;;;12.75;9.75;;;;;;;;5029546;28;49808;-70
2023/04/16 15:42:46;;;;;;;;;8.00;7.00;;;;;;;;5040331;28;49797;-70
2023/04/16 15:45:11;;;;;;;;;4.00;4.00;;;;;;;;5031900;28;49785;-70
2023/04/16 15:47:36;;;;;;;;;5.75;5.25;;;;;;;;5037896;28;50281;-71
2023/04/16 15:50:02;;;;;;;;;5.00;5.00;;;;;;;;5030079;28;49751;-70
2023/04/16 15:52:27;;;;;;;;;7.50;7.50;;;;;;;;5011900;28;50074;-71
2023/04/16 15:54:53;;;;;;;;;5.75;5.75;;;;;;;;5030355;28;50436;-70
2023/04/16 15:57:18;;;;;;;;;4.50;4.50;;;;;;;;5029609;28;49809;-70
2023/04/16 15:59:43;;;;;;;;;9.25;7.75;;;;;;;;5029751;28;49823;-69
2023/04/16 16:02:08;;;;;;;;;6.00;5.50;;;;;;;;5030196;28;49941;-70
2023/04/16 16:04:34;;;;;;;;;6.00;6.00;;;;;;;;5045922;28;50100;-70
2023/04/16 16:06:59;;;;;;;;;7.00;7.00;;;;;;;;5034288;28;49906;-70
2023/04/16 16:09:25;;;;;;;;;7.75;5.75;;;;;;;;5036370;28;50102;-71
2023/04/16 16:11:52;;;;;;;;;4.25;4.25;;;;;;;;5029604;28;49745;-70
2023/04/16 16:14:17;;;;;;;;;6.00;6.00;;;;;;;;5030713;28;49871;-72
2023/04/16 16:16:42;;;;;;;;;5.50;5.50;;;;;;;;5037641;28;49945;-73
2023/04/16 16:19:07;;;;;;;;;4.00;4.00;;;;;;;;5039545;28;49919;-69
2023/04/16 16:21:32;;;;;;;;;6.00;6.00;;;;;;;;5030737;28;50110;-69
2023/04/16 16:23:58;;;;;;;;;5.50;5.25;;;;;;;;5030125;28;50002;-69
2023/04/16 16:26:23;;;;;;;;;6.75;4.75;;;;;;;;5033696;28;49814;-69
2023/04/16 16:28:48;;;;;;;;;4.00;4.00;;;;;;;;5029390;28;49574;-72
2023/04/16 16:31:13;;;;;;;;;6.50;5.00;;;;;;;;5029044;28;49895;-74
2023/04/16 16:33:38;;;;;;;;;3.50;3.50;;;;;;;;5029485;28;50081;-74
2023/04/16 16:36:04;;;;;;;;;3.00;3.00;;;;;;;;5028607;28;50803;-72
2023/04/16 16:38:30;;;;;;;;;6.50;5.00;;;;;;;;5037870;28;49735;-71
2023/04/16 16:40:55;;;;;;;;;6.25;5.25;;;;;;;;5029285;28;49818;-68
2023/04/16 16:43:21;;;;;;;;;5.25;5.25;;;;;;;;5029508;28;49855;-69
2023/04/16 16:45:46;;;;;;;;;7.00;7.00;;;;;;;;5027511;28;50808;-69
2023/04/16 16:48:11;;;;;;;;;4.25;4.25;;;;;;;;5030517;28;49784;-70
2023/04/16 16:50:36;;;;;;;;;6.00;6.00;;;;;;;;5026701;28;49727;-69
2023/04/16 16:53:02;;;;;;;;;5.25;5.25;;;;;;;;5009443;28;50168;-70
2023/04/16 16:55:27;;;;;;;;;6.00;5.50;;;;;;;;5029205;28;49845;-72
2023/04/16 16:57:52;;;;;;;;;6.50;5.50;;;;;;;;5027196;28;49802;-70
2023/04/16 17:00:20;;;;;;;;;6.25;6.00;;;;;;;;5028586;28;50031;-69
2023/04/16 17:02:45;;;;;;;;;5.25;5.00;;;;;;;;5026744;28;49953;-70
2023/04/16 17:05:11;;;;;;;;;9.00;7.75;;;;;;;;5028090;28;50082;-70
2023/04/16 17:07:36;;;;;;;;;4.75;4.75;;;;;;;;5010924;28;49849;-71
2023/04/16 17:10:02;;;;;;;;;4.50;3.75;;;;;;;;5029584;28;50244;-69
2023/04/16 17:12:27;;;;;;;;;4.50;4.00;;;;;;;;5027538;28;49920;-70
2023/04/16 17:14:54;;;;;;;;;7.50;6.50;;;;;;;;5027032;28;50404;-69
2023/04/16 17:17:19;;;;;;;;;7.00;5.50;;;;;;;;5027348;28;49744;-70
2023/04/16 17:19:45;;;;;;;;;8.50;7.50;;;;;;;;5029868;28;50044;-70
2023/04/16 17:22:10;;;;;;;;;5.75;5.75;;;;;;;;5027389;28;50173;-70
2023/04/16 17:24:35;;;;;;;;;2.50;2.50;;;;;;;;5027114;28;50490;-70
2023/04/16 17:27:02;;;;;;;;;4.25;3.25;;;;;;;;5027136;28;50073;-70
2023/04/16 17:29:28;;;;;;;;;8.25;5.50;;;;;;;;5027589;28;50399;-71
2023/04/16 17:31:53;;;;;;;;;3.00;3.00;;;;;;;;5026246;28;49987;-69
2023/04/16 17:34:19;;;;;;;;;2.00;2.00;;;;;;;;5027193;28;51559;-68
2023/04/16 17:36:45;;;;;;;;;5.25;4.25;;;;;;;;5025969;28;50180;-68
2023/04/16 17:39:11;;;;;;;;;4.00;2.75;;;;;;;;5025410;28;50127;-68
2023/04/16 17:41:36;;;;;;;;;3.00;3.00;;;;;;;;5027446;28;50043;-70
2023/04/16 17:44:01;;;;;;;;;4.00;2.75;;;;;;;;5025048;28;50510;-68
2023/04/16 17:46:26;;;;;;;;;5.00;5.00;;;;;;;;5025370;28;49884;-70
2023/04/16 17:48:52;;;;;;;;;4.75;4.75;;;;;;;;5027014;28;50624;-70
2023/04/16 17:51:17;;;;;;;;;5.25;4.00;;;;;;;;5027655;28;49930;-69
2023/04/16 17:53:43;;;;;;;;;5.50;4.50;;;;;;;;5023958;28;50394;-69
2023/04/16 17:56:08;;;;;;;;;6.25;5.75;;;;;;;;5022795;28;50224;-68
2023/04/16 17:58:34;;;;;;;;;4.75;4.00;;;;;;;;5027026;28;50347;-69
2023/04/16 18:00:59;;;;;;;;;5.00;5.00;;;;;;;;5036095;28;50038;-69
2023/04/16 18:03:25;;;;;;;;;5.25;5.25;;;;;;;;5027019;28;50143;-70
2023/04/16 18:05:50;;;;;;;;;3.50;3.50;;;;;;;;5009937;28;49963;-69
2023/04/16 18:08:15;;;;;;;;;6.00;6.00;;;;;;;;5027384;28;49724;-69
2023/04/16 18:10:40;;;;;;;;;8.50;8.50;;;;;;;;5027726;28;50363;-70
2023/04/16 18:13:06;;;;;;;;;12.25;12.25;;;;;;;;5029079;28;50306;-70
2023/04/16 18:15:34;;;;;;;;;6.50;4.00;;;;;;;;5019820;28;49887;-70
2023/04/16 18:17:59;;;;;;;;;5.00;5.00;;;;;;;;5030346;28;49742;-70
2023/04/16 18:20:24;;;;;;;;;4.50;4.50;;;;;;;;5030993;28;50083;-70
2023/04/16 18:22:50;;;;;;;;;5.25;4.75;;;;;;;;5034351;28;50592;-73
2023/04/16 18:25:15;;;;;;;;;6.50;5.25;;;;;;;;5031183;28;50003;-74
2023/04/16 18:27:40;;;;;;;;;6.00;6.00;;;;;;;;5031115;28;49733;-74
2023/04/16 18:30:06;;;;;;;;;8.00;4.75;;;;;;;;5030705;28;49774;-73
2023/04/16 18:32:31;;;;;;;;;4.75;4.00;;;;;;;;5031091;28;51186;-75
2023/04/16 18:34:56;;;;;;;;;5.75;5.75;;;;;;;;5030533;28;50252;-75
2023/04/16 18:37:21;;;;;;;;;8.50;6.25;;;;;;;;5031194;28;50048;-74
2023/04/16 18:39:47;;;;;;;;;7.25;6.25;;;;;;;;5031925;28;49676;-73
2023/04/16 18:42:12;;;;;;;;;13.50;11.50;;;;;;;;5032708;28;50337;-77
2023/04/16 18:44:37;;;;;;;;;10.75;7.25;;;;;;;;5031710;28;49636;-69
2023/04/16 18:47:02;;;;;;;;;8.75;6.50;;;;;;;;5030748;28;50298;-71
2023/04/16 18:49:27;;;;;;;;;6.00;6.00;;;;;;;;5031014;28;50033;-71
2023/04/16 18:51:55;;;;;;;;;6.25;5.50;;;;;;;;5030676;28;50057;-71
2023/04/16 18:54:21;;;;;;;;;5.00;5.00;;;;;;;;5030969;28;49711;-72
2023/04/16 18:56:46;;;;;;;;;10.25;7.00;;;;;;;;5032208;28;49767;-70
2023/04/16 18:59:11;;;;;;;;;6.50;5.25;;;;;;;;5034207;28;50027;-71
2023/04/16 19:01:37;;;;;;;;;5.00;5.00;;;;;;;;5037513;28;50858;-71
2023/04/16 19:04:02;;;;;;;;;6.00;4.50;;;;;;;;5037717;28;50002;-70
2023/04/16 19:06:28;;;;;;;;;6.25;6.25;;;;;;;;5034254;28;49738;-71
2023/04/16 19:08:53;;;;;;;;;11.00;6.00;;;;;;;;5033451;28;49784;-72
2023/04/16 19:11:18;;;;;;;;;4.00;4.00;;;;;;;;5030300;28;50724;-70
2023/04/16 19:13:43;;;;;;;;;7.00;6.00;;;;;;;;5035033;28;50309;-70
2023/04/16 19:16:09;;;;;;;;;6.25;6.25;;;;;;;;5031594;28;49708;-69
2023/04/16 19:18:35;;;;;;;;;6.75;6.00;;;;;;;;5029448;28;50032;-69
2023/04/16 19:21:00;;;;;;;;;6.00;6.00;;;;;;;;5030551;28;50829;-73
2023/04/16 19:23:26;;;;;;;;;9.00;7.00;;;;;;;;5038745;28;49917;-74
2023/04/16 19:25:51;;;;;;;;;9.50;6.00;;;;;;;;5042500;28;50217;-75
2023/04/16 19:28:17;;;;;;;;;6.00;6.00;;;;;;;;5031639;28;49969;-73
2023/04/16 19:30:45;;;;;;;;;5.00;5.00;;;;;;;;5028191;28;50134;-71
2023/04/16 19:33:10;;;;;;;;;6.25;5.50;;;;;;;;5028613;28;50032;-71
2023/04/16 19:35:35;;;;;;;;;5.75;4.75;;;;;;;;5034830;28;49739;-71
2023/04/16 19:38:00;;;;;;;;;7.00;7.00;;;;;;;;5034150;28;50299;-76
2023/04/16 19:40:26;;;;;;;;;7.00;6.00;;;;;;;;5026077;28;50252;-73
2023/04/16 19:42:51;;;;;;;;;5.75;5.00;;;;;;;;5029676;28;49965;-72
2023/04/16 19:45:17;;;;;;;;;5.00;4.00;;;;;;;;5030116;28;50060;-74
2023/04/16 19:47:42;;;;;;;;;6.00;5.00;;;;;;;;5010751;28;49950;-74
2023/04/16 19:50:07;;;;;;;;;5.00;5.00;;;;;;;;5029810;28;49776;-75
2023/04/16 19:52:37;;;;;;;;;5.00;5.00;;;;;;;;5030034;28;50009;-73
2023/04/16 19:55:03;;;;;;;;;5.25;5.25;;;;;;;;5029791;28;49769;-74
2023/04/16 19:57:28;;;;;;;;;3.00;3.00;;;;;;;;5029965;28;49637;-72
2023/04/16 19:59:53;;;;;;;;;6.00;6.00;;;;;;;;5032361;28;49785;-73
2023/04/16 20:02:18;;;;;;;;;7.00;7.00;;;;;;;;5030034;28;49958;-73
2023/04/16 20:04:44;;;;;;;;;7.75;6.25;;;;;;;;5025761;28;49695;-75
2023/04/16 20:07:09;;;;;;;;;4.50;4.50;;;;;;;;5011592;28;49999;-74
2023/04/16 20:09:34;;;;;;;;;11.25;8.00;;;;;;;;5030056;28;49798;-73
2023/04/16 20:12:00;;;;;;;;;8.00;8.00;;;;;;;;5029523;28;50037;-73
2023/04/16 20:14:25;;;;;;;;;8.25;8.00;;;;;;;;5015719;28;50280;-73
2023/04/16 20:16:51;;;;;;;;;7.00;7.00;;;;;;;;5029888;28;50093;-74
2023/04/16 20:19:16;;;;;;;;;10.00;8.25;;;;;;;;5031398;28;49893;-73
2023/04/16 20:21:42;;;;;;;;;6.50;6.00;;;;;;;;5017270;28;49838;-73
2023/04/16 20:24:09;;;;;;;;;7.75;7.75;;;;;;;;5015525;28;50130;-73
2023/04/16 20:26:35;;;;;;;;;8.25;5.75;;;;;;;;5028758;28;50060;-71
2023/04/16 20:29:00;;;;;;;;;6.00;6.00;;;;;;;;5028850;28;50739;-71
2023/04/16 20:31:25;;;;;;;;;7.75;7.75;;;;;;;;5029246;28;49844;-75
2023/04/16 20:33:51;;;;;;;;;4.00;3.00;;;;;;;;5030052;28;50327;-74
2023/04/16 20:36:16;;;;;;;;;9.00;7.25;;;;;;;;5029436;28;50301;-74
2023/04/16 20:38:42;;;;;;;;;6.00;6.00;;;;;;;;5028884;28;50037;-74
2023/04/16 20:41:13;;;;;;;;;6.25;6.25;;;;;;;;5030147;28;50234;-73
2023/04/16 20:43:42;;;;;;;;;8.50;6.50;;;;;;;;5013375;28;49823;-74
2023/04/16 20:46:08;;;;;;;;;5.00;4.00;;;;;;;;5029614;28;49690;-74
2023/04/16 20:48:34;;;;;;;;;5.00;5.00;;;;;;;;5029317;28;50942;-75
2023/04/16 20:51:00;;;;;;;;;7.50;7.50;;;;;;;;5018462;28;50162;-74
2023/04/16 20:53:26;;;;;;;;;4.00;4.00;;;;;;;;5031706;28;49708;-72
2023/04/16 20:55:51;;;;;;;;;5.00;5.00;;;;;;;;5032308;28;50048;-74
2023/04/16 20:58:16;;;;;;;;;8.25;5.75;;;;;;;;5028412;28;51075;-74
2023/04/16 21:00:41;;;;;;;;;5.25;5.25;;;;;;;;5028383;28;49800;-74
2023/04/16 21:03:06;;;;;;;;;7.00;5.00;;;;;;;;5030191;28;49850;-74
2023/04/16 21:05:32;;;;;;;;;4.50;4.50;;;;;;;;5027673;28;50044;-74
2023/04/16 21:07:58;;;;;;;;;6.25;5.00;;;;;;;;5028337;28;50793;-75
2023/04/16 21:10:23;;;;;;;;;6.00;4.00;;;;;;;;5014586;28;50158;-74
2023/04/16 21:12:48;;;;;;;;;6.00;6.00;;;;;;;;5029099;28;49947;-75
2023/04/16 21:15:13;;;;;;;;;4.00;4.00;;;;;;;;5034715;28;49977;-76
2023/04/16 21:17:38;;;;;;;;;5.00;4.50;;;;;;;;5034095;28;51401;-76
2023/04/16 21:20:05;;;;;;;;;8.50;8.00;;;;;;;;5011283;28;49869;-76
2023/04/16 21:22:31;;;;;;;;;2.00;2.00;;;;;;;;5011516;28;50235;-75
2023/04/16 21:24:56;;;;;;;;;5.00;5.00;;;;;;;;5009958;28;50062;-75
2023/04/16 21:27:21;;;;;;;;;6.75;5.00;;;;;;;;5027490;28;51075;-75
2023/04/16 21:29:46;;;;;;;;;3.75;3.75;;;;;;;;5028584;28;49794;-80
